Time;durP1;ratioP1;P1;durP2;ratioP2;P2;SDS_P1;SDS_P2;PMS_P1;PMS_P2;Temp;Humidity;BMP_temperature;BMP_pressure;BME280_temperature;BME280_humidity;BME280_pressure;Samples;Min_cycle;Max_cycle;Signal;HPM_P1;HPM_P2
2022/05/02 00:01:31;;;;;;;36.97;16.38;;;;;;;10.64;40.72;99842.31;5037026;28;20095;-82
2022/05/02 00:03:58;;;;;;;41.20;15.43;;;;;;;10.65;40.78;99855.69;5037922;28;20045;-83
2022/05/02 00:06:24;;;;;;;53.92;15.73;;;;;;;10.66;40.36;99859.22;5036813;28;20038;-84
2022/05/02 00:08:51;;;;;;;41.22;14.52;;;;;;;10.64;40.53;99861.47;5021441;28;20046;-83
2022/05/02 00:11:17;;;;;;;39.95;13.35;;;;;;;10.62;40.23;99850.00;5023397;28;20464;-80
2022/05/02 00:13:43;;;;;;;32.03;12.85;;;;;;;10.51;40.17;99847.44;5016669;28;20076;-81
2022/05/02 00:16:09;;;;;;;41.72;13.48;;;;;;;10.51;40.29;99847.44;5016230;28;20038;-82
2022/05/02 00:18:35;;;;;;;37.00;13.97;;;;;;;10.53;40.47;99845.22;5015927;28;20400;-80
2022/05/02 00:21:02;;;;;;;31.90;12.95;;;;;;;10.56;40.21;99852.00;5024250;28;20041;-82
2022/05/02 00:23:29;;;;;;;42.42;12.32;;;;;;;10.59;40.25;99848.66;5034598;28;20521;-80
2022/05/02 00:25:55;;;;;;;;;;;;;;;10.61;40.44;99857.41;5036178;28;20095;-81
2022/05/02 00:28:21;;;;;;;31.70;12.93;;;;;;;10.66;40.76;99856.47;5035434;28;19927;-81
2022/05/02 00:30:47;;;;;;;41.38;13.93;;;;;;;10.66;40.32;99849.13;5033064;28;20040;-80
2022/05/02 00:33:15;;;;;;;31.35;13.38;;;;;;;10.65;40.42;99855.69;5017718;28;20053;-81
2022/05/02 00:35:41;;;;;;;35.05;14.48;;;;;;;10.67;40.91;99848.00;5035822;28;20063;-81
2022/05/02 00:38:07;;;;;;;34.83;14.25;;;;;;;10.70;41.30;99849.31;5038270;28;20053;-89
2022/05/02 00:40:33;;;;;;;31.75;13.38;;;;;;;10.55;41.34;99831.25;5038462;28;20107;-89
2022/05/02 00:42:59;;;;;;;32.95;13.00;;;;;;;10.54;41.62;99822.25;5023533;28;20046;-83
2022/05/02 00:45:25;;;;;;;35.90;12.87;;;;;;;10.64;42.11;99834.13;5017477;28;20072;-82
2022/05/02 00:47:56;;;;;;;40.00;13.40;;;;;;;10.63;42.37;99838.78;5022623;28;20128;-86
2022/05/02 00:50:33;;;;;;;32.45;13.52;;;;;;;10.61;42.48;99838.25;5029700;28;20057;-86
2022/05/02 00:52:59;;;;;;;34.45;13.02;;;;;;;10.49;42.80;99825.03;5001415;28;20046;-86
2022/05/02 00:55:26;;;;;;;30.90;13.43;;;;;;;10.55;42.52;99845.72;5016985;28;20045;-86
2022/05/02 00:57:53;;;;;;;28.52;12.98;;;;;;;10.54;42.09;99837.84;5016563;28;20103;-87
2022/05/02 01:00:20;;;;;;;;;;;;;;;10.47;42.43;99826.47;5001746;28;20529;-85
2022/05/02 01:02:46;;;;;;;32.63;12.50;;;;;;;10.42;42.36;99823.81;5020190;28;19921;-91
2022/05/02 01:05:24;;;;;;;28.42;12.40;;;;;;;10.43;42.89;99819.97;5019699;28;20053;-86
2022/05/02 01:08:44;;;;;;;27.15;12.73;;;;;;;10.32;43.11;99820.13;5019065;28;20092;-91
2022/05/02 01:11:10;;;;;;;24.88;13.82;;;;;;;10.00;42.84;99781.84;5034968;28;20552;-85
2022/05/02 01:13:51;;;;;;;43.80;14.23;;;;;;;10.21;43.01;99809.66;5012242;28;20514;-88
2022/05/02 01:16:37;;;;;;;44.40;17.00;;;;;;;10.14;43.05;99788.19;5014862;28;20073;-89
2022/05/02 01:19:19;;;;;;;36.88;17.25;;;;;;;10.29;42.87;99798.06;5017595;28;20057;-88
2022/05/02 01:21:54;;;;;;;50.28;18.00;;;;;;;10.05;43.34;99779.84;5016962;28;20112;-83
2022/05/02 01:24:20;;;;;;;37.00;16.25;;;;;;;10.08;43.52;99782.00;5025899;28;20036;-82
2022/05/02 01:26:49;;;;;;;34.60;13.88;;;;;;;10.17;43.86;99822.31;5036554;28;20045;-88
2022/05/02 01:29:15;;;;;;;41.78;18.27;;;;;;;10.00;43.72;99800.97;5037674;28;20045;-88
2022/05/02 01:31:44;;;;;;;40.97;19.03;;;;;;;10.05;43.55;99817.28;5002773;28;20041;-85
2022/05/02 01:34:10;;;;;;;45.22;18.90;;;;;;;10.02;43.87;99823.34;5001058;28;20038;-85
2022/05/02 01:36:36;;;;;;;38.08;17.17;;;;;;;9.97;44.04;99813.31;5018979;28;20033;-88
2022/05/02 01:39:02;;;;;;;33.67;16.98;;;;;;;9.96;43.94;99817.13;4999531;28;20033;-87
2022/05/02 01:41:29;;;;;;;33.83;18.75;;;;;;;9.96;44.29;99813.59;5001819;28;20033;-87
2022/05/02 01:43:55;;;;;;;38.35;18.15;;;;;;;9.98;44.43;99819.59;5033513;28;20068;-87
2022/05/02 01:46:21;;;;;;;35.33;18.63;;;;;;;9.94;44.76;99815.84;4986147;28;20132;-87
2022/05/02 01:48:47;;;;;;;40.10;17.60;;;;;;;9.91;44.47;99817.22;4991692;28;20052;-88
2022/05/02 01:51:13;;;;;;;40.22;17.80;;;;;;;9.75;44.65;99791.25;4982235;28;20042;-85
2022/05/02 01:53:40;;;;;;;39.20;15.80;;;;;;;9.74;44.71;99792.38;5029971;28;20088;-86
2022/05/02 01:56:06;;;;;;;32.20;15.23;;;;;;;9.77;44.75;99811.69;4982596;28;20061;-87
2022/05/02 01:58:32;;;;;;;36.60;15.57;;;;;;;9.67;45.09;99811.84;4998235;28;20612;-89
2022/05/02 02:00:59;;;;;;;42.92;15.60;;;;;;;9.60;45.45;99819.56;5015310;28;20502;-88
2022/05/02 02:03:25;;;;;;;40.30;19.03;;;;;;;9.47;45.61;99823.03;4997869;28;20042;-87
2022/05/02 02:05:51;;;;;;;34.83;16.10;;;;;;;9.41;45.79;99828.56;4979235;28;20709;-86
2022/05/02 02:08:28;;;;;;;38.10;15.05;;;;;;;9.40;45.99;99826.94;5013491;28;20046;-81
2022/05/02 02:10:58;;;;;;;30.98;15.27;;;;;;;9.47;45.97;99823.84;5014516;28;20076;-84
2022/05/02 02:13:24;;;;;;;40.65;13.85;;;;;;;9.60;46.09;99834.06;5012031;28;20041;-85
2022/05/02 02:15:51;;;;;;;42.05;13.45;;;;;;;9.52;45.64;99812.84;5010640;28;20041;-85
2022/05/02 02:18:18;;;;;;;24.67;12.80;;;;;;;9.68;45.67;99831.78;5012028;28;20045;-88
2022/05/02 02:20:49;;;;;;;37.57;13.93;;;;;;;9.75;45.05;99829.47;4977448;28;20046;-87
2022/05/02 02:23:17;;;;;;;31.13;12.43;;;;;;;9.78;44.48;99834.34;4975799;28;20092;-86
2022/05/02 02:25:45;;;;;;;29.65;12.60;;;;;;;9.78;43.98;99831.63;4975817;28;20132;-86
2022/05/02 02:28:18;;;;;;;28.17;13.10;;;;;;;9.81;44.20;99818.19;4978061;28;20565;-85
2022/05/02 02:30:45;;;;;;;36.15;14.15;;;;;;;9.59;43.96;99793.38;4993204;28;20041;-86
2022/05/02 02:33:12;;;;;;;39.00;14.45;;;;;;;9.62;44.19;99806.44;5033272;28;20045;-86
2022/05/02 02:35:39;;;;;;;33.17;12.75;;;;;;;9.67;44.21;99813.75;4998552;28;20137;-87
2022/05/02 02:38:09;;;;;;;32.80;12.45;;;;;;;9.67;44.42;99811.00;5013687;28;20159;-86
2022/05/02 02:40:35;;;;;;;38.70;13.50;;;;;;;9.82;44.17;99833.47;5002289;28;20037;-86
2022/05/02 02:43:03;;;;;;;33.05;13.43;;;;;;;9.86;44.52;99826.28;5015884;28;20041;-87
2022/05/02 02:45:29;;;;;;;45.93;14.30;;;;;;;9.91;44.08;99814.50;5029480;28;20173;-87
2022/05/02 02:47:55;;;;;;;30.53;13.10;;;;;;;10.06;44.37;99827.09;5025118;28;20087;-86
2022/05/02 02:50:22;;;;;;;34.15;14.25;;;;;;;10.10;44.02;99837.16;4995385;28;20132;-87
2022/05/02 02:52:48;;;;;;;29.27;13.63;;;;;;;10.06;44.09;99833.38;4977976;28;20399;-86
2022/05/02 02:55:19;;;;;;;36.90;13.65;;;;;;;10.07;44.59;99823.28;5010888;28;20101;-85
2022/05/02 02:57:50;;;;;;;39.38;14.27;;;;;;;10.09;44.39;99823.78;4977271;28;20418;-88
2022/05/02 03:00:17;;;;;;;29.05;13.77;;;;;;;10.01;44.72;99810.81;4988322;28;20038;-87
2022/05/02 03:02:44;;;;;;;35.58;14.35;;;;;;;10.06;44.34;99825.16;5023737;28;20131;-86
2022/05/02 03:08:13;;;;;;;33.92;14.13;;;;;;;10.27;44.72;99830.38;5012435;28;20778;-87
2022/05/02 03:14:17;;;;;;;78.03;16.95;;;;;;;10.46;45.18;99843.97;5004446;28;20060;-84
2022/05/02 03:16:44;;;;;;;82.97;16.33;;;;;;;10.49;44.82;99844.19;5005763;28;20379;-87
2022/05/02 03:19:14;;;;;;;79.38;16.50;;;;;;;10.47;44.80;99830.03;4975149;28;20042;-85
2022/05/02 03:21:40;;;;;;;68.20;16.30;;;;;;;10.52;44.72;99829.13;4972791;28;20045;-86
2022/05/02 03:24:07;;;;;;;62.78;15.38;;;;;;;10.61;45.12;99845.66;4992199;28;20255;-86
2022/05/02 03:26:34;;;;;;;67.53;15.27;;;;;;;10.72;45.34;99849.81;4991216;28;20048;-86
2022/05/02 03:29:00;;;;;;;61.67;15.52;;;;;;;10.64;44.21;99828.66;4991582;28;20152;-85
2022/05/02 03:31:27;;;;;;;46.90;15.57;;;;;;;10.76;44.11;99839.88;4990130;28;20631;-85
2022/05/02 03:33:54;;;;;;;49.22;14.88;;;;;;;10.71;43.44;99840.00;4974138;28;20067;-85
2022/05/02 03:36:20;;;;;;;48.80;14.70;;;;;;;10.73;43.40;99851.47;4990633;28;20052;-87
2022/05/02 03:38:47;;;;;;;33.73;13.97;;;;;;;10.71;43.53;99859.13;4974323;28;20560;-85
2022/05/02 03:41:13;;;;;;;32.47;13.60;;;;;;;10.81;44.18;99859.75;4995418;28;20522;-86
2022/05/02 03:43:39;;;;;;;43.67;13.80;;;;;;;10.93;44.27;99853.81;4975588;28;20065;-88
2022/05/02 03:46:10;;;;;;;37.30;14.80;;;;;;;10.75;44.22;99813.66;4995331;28;20042;-87
2022/05/02 03:48:38;;;;;;;36.05;13.13;;;;;;;10.48;43.65;99784.38;5031246;28;20406;-87
2022/05/02 03:51:05;;;;;;;36.60;14.82;;;;;;;10.86;44.02;99837.00;5072890;28;20178;-86
2022/05/02 03:53:38;;;;;;;34.50;14.68;;;;;;;10.87;43.96;99813.19;5038979;28;20047;-85
2022/05/02 03:57:03;;;;;;;33.55;13.82;;;;;;;11.16;43.47;99860.22;5056140;28;20117;-86
2022/05/02 04:00:28;;;;;;;37.87;13.47;;;;;;;11.22;43.07;99852.69;5037415;28;20040;-86
2022/05/02 04:02:55;;;;;;;39.75;14.38;;;;;;;11.33;43.23;99853.34;5037649;28;20055;-87
2022/05/02 04:05:33;;;;;;;40.30;14.05;;;;;;;10.89;42.77;99786.31;5029192;22;20061;-85
2022/05/02 04:07:59;;;;;;;29.77;13.25;;;;;;;11.18;42.59;99848.97;5035080;28;20062;-87
2022/05/02 04:10:27;;;;;;;35.30;13.77;;;;;;;11.21;42.98;99860.09;5034191;28;20417;-87
2022/05/02 04:12:57;;;;;;;31.13;13.93;;;;;;;11.28;42.35;99846.03;5022853;28;20048;-88
2022/05/02 04:15:26;;;;;;;42.20;14.30;;;;;;;11.36;42.64;99847.25;5055261;28;20045;-88
2022/05/02 04:17:58;;;;;;;43.35;13.70;;;;;;;11.56;42.25;99865.19;5008307;28;20041;-86
2022/05/02 04:20:24;;;;;;;37.40;13.07;;;;;;;11.59;42.09;99854.44;5039572;28;20091;-86
2022/05/02 04:22:51;;;;;;;31.33;12.32;;;;;;;11.79;40.79;99853.19;5006666;28;20624;-85
2022/05/02 04:25:18;;;;;;;23.17;11.45;;;;;;;11.65;40.16;99803.88;5004093;28;20050;-86
2022/05/02 04:27:54;;;;;;;30.00;12.20;;;;;;;11.86;40.86;99809.75;5037176;28;20033;-86
2022/05/02 04:30:28;;;;;;;21.02;11.32;;;;;;;11.87;39.58;99808.63;5018027;28;20060;-87
2022/05/02 04:32:55;;;;;;;30.00;11.88;;;;;;;11.93;39.41;99801.91;5014033;28;20045;-87
2022/05/02 04:35:31;;;;;;;29.25;11.77;;;;;;;12.31;38.91;99815.25;5030860;28;20038;-87
2022/05/02 04:37:58;;;;;;;28.05;10.00;;;;;;;12.50;39.37;99855.38;5016374;28;20057;-86
2022/05/02 04:40:25;;;;;;;31.30;10.93;;;;;;;12.53;38.34;99854.75;4983163;28;20109;-86
2022/05/02 04:42:51;;;;;;;33.07;9.93;;;;;;;12.41;38.20;99820.47;4999585;28;20061;-86
2022/05/02 04:45:17;;;;;;;80.88;16.08;;;;;;;12.69;38.56;99848.56;5026497;28;20290;-86
2022/05/02 04:47:43;;;;;;;25.00;9.33;;;;;;;12.70;38.07;99841.94;5017534;28;20037;-86
2022/05/02 04:50:10;;;;;;;29.45;10.25;;;;;;;12.59;38.02;99832.38;5003893;28;20067;-86
2022/05/02 04:52:37;;;;;;;25.38;9.70;;;;;;;12.55;38.07;99857.97;5039066;28;20072;-87
2022/05/02 04:55:05;;;;;;;22.48;8.82;;;;;;;12.25;37.87;99821.16;5054334;28;20538;-88
2022/05/02 04:57:32;;;;;;;33.38;9.75;;;;;;;12.61;38.43;99845.75;5039098;28;20080;-87
2022/05/02 04:59:58;;;;;;;41.70;8.98;;;;;;;12.66;37.63;99849.19;5039064;28;20041;-88
2022/05/02 05:02:25;;;;;;;;;;;;;;;12.64;38.59;99854.16;4988221;28;20052;-85
2022/05/02 05:04:51;;;;;;;17.03;7.37;;;;;;;12.54;37.77;99837.19;5004121;28;19921;-86
2022/05/02 05:07:17;;;;;;;37.73;8.47;;;;;;;12.59;37.39;99848.84;4990567;28;20048;-87
2022/05/02 05:09:44;;;;;;;16.77;6.20;;;;;;;12.51;36.46;99824.09;5003614;28;20132;-87
2022/05/02 05:12:34;;;;;;;13.90;6.78;;;;;;;12.77;36.78;99847.00;4985941;28;20450;-86
2022/05/02 05:18:13;;;;;;;39.28;8.95;;;;;;;13.05;37.02;99858.59;5036014;28;20526;-88
2022/05/02 05:20:43;;;;;;;28.92;7.13;;;;;;;13.02;35.45;99852.94;5025851;28;20033;-87
2022/05/02 05:23:34;;;;;;;19.42;6.75;;;;;;;13.01;35.13;99852.09;5055887;28;20441;-87
2022/05/02 05:26:31;;;;;;;27.92;7.43;;;;;;;13.22;35.00;99855.13;5012218;28;20086;-88
2022/05/02 05:29:17;;;;;;;18.60;7.60;;;;;;;13.36;35.48;99863.28;5030847;28;20057;-89
2022/05/02 05:32:10;;;;;;;53.40;9.73;;;;;;;13.32;33.93;99862.28;4987559;28;20552;-88
2022/05/02 05:34:47;;;;;;;22.40;6.28;;;;;;;12.82;34.42;99844.13;5034553;28;20049;-90
2022/05/02 05:37:51;;;;;;;18.10;6.13;;;;;;;12.78;35.19;99859.59;5043868;28;20041;-88
2022/05/02 05:40:29;;;;;;;28.20;6.55;;;;;;;12.87;34.86;99860.44;5007063;28;20037;-91
2022/05/02 05:43:15;;;;;;;25.38;6.75;;;;;;;12.92;35.05;99848.53;5038566;28;20049;-84
2022/05/02 05:46:10;;;;;;;28.30;5.90;;;;;;;13.10;34.25;99863.13;5004442;28;20048;-83
2022/05/02 05:49:09;;;;;;;18.58;5.30;;;;;;;12.80;33.17;99848.31;5016574;28;20101;-88
2022/05/02 05:52:15;;;;;;;14.82;5.05;;;;;;;12.85;32.69;99859.97;5022961;28;20139;-87
2022/05/02 05:54:56;;;;;;;13.95;3.97;;;;;;;12.68;32.75;99855.19;5005490;28;20490;-86
2022/05/02 05:57:49;;;;;;;30.23;5.97;;;;;;;12.75;33.73;99857.47;5020448;28;20095;-87
2022/05/02 06:00:21;;;;;;;19.58;3.88;;;;;;;12.61;32.24;99846.56;5022184;28;20044;-87
2022/05/02 06:03:24;;;;;;;13.10;3.70;;;;;;;12.57;32.45;99839.28;4994796;28;20146;-86
2022/05/02 06:05:58;;;;;;;12.73;3.78;;;;;;;12.40;32.96;99813.38;4940595;29;20055;-86
2022/05/02 06:08:58;;;;;;;23.35;5.20;;;;;;;12.61;33.25;99854.00;4918936;29;20039;-88
2022/05/02 06:11:39;;;;;;;10.98;4.63;;;;;;;12.58;33.20;99840.91;4923111;29;20067;-87
2022/05/02 06:14:15;;;;;;;17.05;5.00;;;;;;;12.62;32.89;99845.47;4911613;29;20062;-87
2022/05/02 06:19:46;;;;;;;14.48;4.38;;;;;;;12.73;34.19;99848.75;4936337;29;20151;-86
2022/05/02 06:22:27;;;;;;;;;;;;;;;12.85;34.21;99849.00;4939385;29;20544;-85
2022/05/02 06:25:05;;;;;;;9.63;4.47;;;;;;;13.09;36.13;99845.88;4960863;28;19929;-87
2022/05/02 06:27:34;;;;;;;8.95;3.80;;;;;;;13.05;33.13;99828.41;4961292;28;20050;-83
2022/05/02 06:30:11;;;;;;;16.45;4.43;;;;;;;13.18;32.43;99848.66;4945284;28;20490;-86
2022/05/02 06:32:55;;;;;;;13.45;4.60;;;;;;;13.15;33.10;99827.31;4979147;28;20479;-86
2022/05/02 06:35:36;;;;;;;28.73;5.55;;;;;;;13.19;30.95;99847.50;5033448;28;20045;-85
2022/05/02 06:38:08;;;;;;;46.65;6.03;;;;;;;13.06;30.88;99818.25;4994589;28;20046;-87
2022/05/02 06:41:21;;;;;;;12.43;3.40;;;;;;;13.00;30.33;99839.53;5004345;28;20056;-85
2022/05/02 06:43:57;;;;;;;9.30;3.38;;;;;;;12.88;29.81;99840.13;5001721;28;20037;-86
2022/05/02 06:47:19;;;;;;;79.63;4.97;;;;;;;12.89;30.00;99832.69;5030899;28;20526;-88
2022/05/02 06:50:05;;;;;;;88.75;9.05;;;;;;;12.77;31.17;99789.38;4977670;28;20419;-88
2022/05/02 06:52:40;;;;;;;6.93;2.92;;;;;;;13.17;29.42;99828.59;4962102;28;20050;-86
2022/05/02 06:55:47;;;;;;;6.63;2.78;;;;;;;13.28;29.01;99831.91;4993885;28;20050;-84
2022/05/02 06:58:45;;;;;;;6.40;2.70;;;;;;;13.36;28.12;99806.41;5017540;28;20128;-86
2022/05/02 07:01:43;;;;;;;24.90;4.35;;;;;;;13.69;28.49;99824.41;4976882;28;20650;-85
2022/05/02 07:04:52;;;;;;;;;;;;;;;;;;;;;
2022/05/02 07:08:16;;;;;;;10.95;3.30;;;;;;;13.47;27.99;99773.16;5028549;28;20485;-89
2022/05/02 07:11:05;;;;;;;9.50;3.08;;;;;;;13.45;26.74;99797.41;4904549;29;20051;-88
2022/05/02 07:14:16;;;;;;;26.15;3.65;;;;;;;13.53;26.93;99810.31;4921695;29;20125;-87
2022/05/02 07:16:49;;;;;;;8.93;3.35;;;;;;;13.31;26.93;99794.75;4911905;29;20075;-86
2022/05/02 07:19:49;;;;;;;22.20;3.38;;;;;;;13.60;26.71;99813.41;4903265;29;20426;-86
2022/05/02 07:22:36;;;;;;;11.60;2.92;;;;;;;13.71;26.33;99806.47;4908763;29;20450;-89
2022/05/02 07:25:28;;;;;;;6.53;2.58;;;;;;;13.60;26.09;99783.19;4906407;29;20085;-85
2022/05/02 07:28:17;;;;;;;14.73;3.08;;;;;;;13.73;26.49;99808.91;4901821;29;20036;-88
2022/05/02 07:30:51;;;;;;;9.32;2.80;;;;;;;13.74;27.27;99814.09;4884910;29;20044;-88
2022/05/02 07:35:57;;;;;;;;;;;;;;;13.91;26.10;99812.44;4992165;28;20077;-88
2022/05/02 07:38:59;;;;;;;9.00;2.70;;;;;;;13.77;25.92;99807.91;4993346;28;20480;-87
2022/05/02 07:41:53;;;;;;;13.55;2.97;;;;;;;13.66;25.71;99787.41;5009233;28;20536;-86
2022/05/02 07:44:54;;;;;;;;;;;;;;;13.58;24.57;99804.69;4990608;28;20042;-86
2022/05/02 07:47:48;;;;;;;8.30;2.72;;;;;;;13.45;25.78;99758.94;4971343;28;19980;-88
2022/05/02 07:50:21;;;;;;;5.20;2.40;;;;;;;13.64;24.78;99767.66;4951677;28;20141;-87
2022/05/02 07:53:41;;;;;;;7.75;2.55;;;;;;;13.98;23.87;99782.56;4955870;28;20432;-89
2022/05/02 07:57:39;;;;;;;14.80;3.15;;;;;;;13.90;23.61;99761.38;4990162;28;20049;-86
2022/05/02 08:17:14;;;;;;;12.70;3.50;;;;;;;13.30;24.46;99735.50;5037799;28;20044;-86
2022/05/02 08:20:29;;;;;;;23.23;2.92;;;;;;;14.03;23.66;99801.63;4960336;28;20569;-85
2022/05/02 08:29:26;;;;;;;10.05;2.53;;;;;;;14.88;22.46;99787.25;4989628;28;20456;-86
2022/05/02 08:32:11;;;;;;;32.85;3.65;;;;;;;15.09;22.50;99784.56;4957402;28;20071;-86
2022/05/02 08:34:48;;;;;;;7.68;2.55;;;;;;;14.91;22.13;99789.34;4978302;28;20613;-86
2022/05/02 08:37:37;;;;;;;5.32;2.53;;;;;;;14.73;21.76;99764.63;4943734;28;20053;-89
2022/05/02 08:40:24;;;;;;;5.55;2.20;;;;;;;14.66;20.95;99782.78;4961473;28;20053;-87
2022/05/02 08:43:24;;;;;;;4.65;2.40;;;;;;;14.56;20.66;99770.19;4980005;28;20050;-87
2022/05/02 08:47:03;;;;;;;8.60;2.45;;;;;;;14.55;21.52;99761.13;4959137;28;20038;-87
2022/05/02 08:50:09;;;;;;;8.55;2.95;;;;;;;14.47;21.77;99763.88;4899254;29;20055;-89
2022/05/02 08:53:05;;;;;;;12.47;3.40;;;;;;;14.57;21.88;99775.38;4919296;29;20055;-86
2022/05/02 08:55:43;;;;;;;11.98;3.13;;;;;;;14.74;22.07;99758.00;4920739;29;20047;-85
2022/05/02 08:58:23;;;;;;;6.95;2.60;;;;;;;15.16;21.93;99757.28;4939474;28;20163;-86
2022/05/02 09:01:26;;;;;;;10.85;2.75;;;;;;;15.46;22.84;99766.34;4957051;28;20434;-85
2022/05/02 09:04:18;;;;;;;7.25;2.85;;;;;;;15.41;20.78;99761.03;4955669;28;20082;-85
2022/05/02 09:06:52;;;;;;;5.45;2.58;;;;;;;15.22;20.91;99765.03;4936096;28;20046;-84
2022/05/02 09:09:34;;;;;;;8.57;2.30;;;;;;;15.00;21.50;99752.38;4974053;28;20551;-85
2022/05/02 09:12:29;;;;;;;19.85;3.15;;;;;;;14.99;22.06;99750.75;4957688;28;20039;-81
2022/05/02 09:15:37;;;;;;;4.72;2.55;;;;;;;14.72;21.49;99726.44;4943064;28;20487;-82
2022/05/02 09:18:46;;;;;;;6.93;2.63;;;;;;;15.07;20.68;99745.53;4956993;29;20135;-83
2022/05/02 09:21:28;;;;;;;9.82;2.45;;;;;;;15.10;23.19;99731.91;5022724;28;20063;-84
2022/05/02 09:24:14;;;;;;;11.07;2.90;;;;;;;15.21;22.44;99735.09;5036494;28;20075;-82
2022/05/02 09:27:02;;;;;;;16.60;3.38;;;;;;;15.11;21.59;99736.28;5008176;28;20466;-83
2022/05/02 09:30:07;;;;;;;15.75;3.03;;;;;;;15.00;22.02;99743.31;5038194;28;20073;-85
2022/05/02 09:32:50;;;;;;;34.50;4.93;;;;;;;14.86;22.33;99738.00;5022144;28;20125;-82
2022/05/02 09:35:52;;;;;;;25.90;3.72;;;;;;;14.56;22.08;99717.91;5018472;28;20422;-86
2022/05/02 09:38:28;;;;;;;;;;;;;;;14.63;22.05;99731.16;5000563;28;20487;-87
2022/05/02 09:41:15;;;;;;;14.15;3.55;;;;;;;14.35;21.86;99715.06;5016894;28;19922;-86
2022/05/02 09:50:11;;;;;;;19.45;3.20;;;;;;;15.04;20.78;99709.25;5015928;28;20044;-85
2022/05/02 09:53:00;;;;;;;12.45;2.55;;;;;;;14.98;20.46;99699.59;5003217;28;20113;-88
2022/05/02 09:58:53;;;;;;;12.10;3.13;;;;;;;15.59;23.45;99701.09;4997607;28;20053;-88
2022/05/02 10:01:31;;;;;;;5.55;2.40;;;;;;;15.59;20.70;99655.06;4984731;28;20124;-87
2022/05/02 10:04:19;;;;;;;8.15;2.75;;;;;;;16.24;22.48;99699.53;5178055;23;20068;-87
2022/05/02 10:06:56;;;;;;;10.85;2.63;;;;;;;16.42;19.45;99692.69;5057890;28;20045;-85
2022/05/02 10:09:45;;;;;;;31.25;5.15;;;;;;;16.54;20.06;99699.34;5062070;28;20036;-87
2022/05/02 10:12:39;;;;;;;6.25;2.90;;;;;;;16.56;21.16;99684.06;5055054;28;20040;-88
2022/05/02 10:15:28;;;;;;;8.90;3.10;;;;;;;16.56;20.27;99661.19;5004195;28;20042;-90
2022/05/02 10:18:19;;;;;;;7.78;3.00;;;;;;;16.88;19.82;99678.78;5001080;28;20165;-87
2022/05/02 10:21:14;;;;;;;25.38;4.93;;;;;;;16.97;20.58;99673.97;5016781;28;20037;-89
2022/05/02 10:23:52;;;;;;;15.90;3.63;;;;;;;17.12;20.07;99651.16;5024780;28;20083;-88
2022/05/02 10:26:31;;;;;;;19.85;2.58;;;;;;;17.21;19.02;99642.72;5032640;28;20037;-88
2022/05/02 10:29:23;;;;;;;19.30;5.18;;;;;;;17.36;19.65;99647.50;4983491;28;20399;-86
2022/05/02 10:32:01;;;;;;;8.73;4.40;;;;;;;17.30;18.98;99651.69;5020554;28;20046;-86
2022/05/02 10:34:31;;;;;;;12.65;5.00;;;;;;;17.37;19.05;99660.16;4998836;28;20099;-87
2022/05/02 10:37:04;;;;;;;16.13;4.18;;;;;;;17.05;18.81;99641.81;4981873;28;20136;-84
2022/05/02 10:39:47;;;;;;;9.32;5.55;;;;;;;16.86;19.24;99668.09;5018698;28;20624;-90
2022/05/02 10:42:18;;;;;;;13.40;4.82;;;;;;;16.62;19.13;99662.53;5016668;28;20076;-85
2022/05/02 10:45:06;;;;;;;6.78;3.80;;;;;;;16.39;19.25;99640.09;4985818;28;20042;-89
2022/05/02 10:47:51;;;;;;;47.20;6.15;;;;;;;16.44;19.70;99650.94;5007017;28;20410;-87
2022/05/02 10:50:27;;;;;;;4.35;2.60;;;;;;;16.41;19.41;99637.81;5007643;28;20057;-87
2022/05/02 10:53:15;;;;;;;7.40;2.92;;;;;;;16.56;19.14;99630.81;5068760;28;20047;-86
2022/05/02 10:56:10;;;;;;;7.28;3.00;;;;;;;17.00;18.85;99633.78;5078150;28;20037;-90
2022/05/02 10:58:43;;;;;;;8.25;3.85;;;;;;;17.35;18.93;99629.34;5029008;28;20609;-85
2022/05/02 11:01:19;;;;;;;11.82;3.85;;;;;;;17.78;19.13;99627.81;5061836;28;20036;-89
2022/05/02 11:04:00;;;;;;;11.88;3.00;;;;;;;17.86;18.67;99628.78;5058660;28;20049;-88
2022/05/02 11:06:27;;;;;;;54.10;6.68;;;;;;;17.58;18.42;99596.44;5043613;28;20032;-89
2022/05/02 11:08:59;;;;;;;21.20;4.03;;;;;;;17.43;19.10;99601.91;5027879;28;20051;-89
2022/05/02 11:11:48;;;;;;;13.07;4.20;;;;;;;17.35;19.11;99607.22;5074643;28;20040;-89
2022/05/02 11:14:27;;;;;;;9.70;4.38;;;;;;;17.67;19.04;99603.75;5023471;28;20036;-87
2022/05/02 11:17:10;;;;;;;32.87;7.67;;;;;;;17.96;20.02;99589.53;5023325;28;20135;-88
2022/05/02 11:22:43;;;;;;;20.33;4.05;;;;;;;17.95;17.55;99565.03;5038326;28;20047;-86
2022/05/02 11:25:35;;;;;;;15.68;5.03;;;;;;;17.86;19.28;99589.28;5072067;28;20127;-83
2022/05/02 11:28:24;;;;;;;19.45;6.40;;;;;;;17.46;17.91;99581.84;5034647;28;20041;-85
2022/05/02 11:31:21;;;;;;;12.95;2.90;;;;;;;17.42;16.83;99573.47;5052031;28;20494;-85
2022/05/02 11:34:19;;;;;;;14.25;4.03;;;;;;;17.20;18.31;99555.47;5020264;28;20040;-88
2022/05/02 11:36:55;;;;;;;26.90;9.00;;;;;;;17.17;18.98;99578.28;5060707;28;20124;-86
2022/05/02 11:39:45;;;;;;;21.00;3.30;;;;;;;17.09;17.74;99570.94;5042011;28;20043;-85
2022/05/02 11:42:18;;;;;;;18.85;3.70;;;;;;;17.09;18.51;99574.50;5074901;28;20166;-86
2022/05/02 11:45:06;;;;;;;20.40;4.45;;;;;;;17.01;18.65;99569.09;5061388;28;20311;-86
2022/05/02 11:47:54;;;;;;;64.03;8.70;;;;;;;17.18;20.14;99565.25;5034441;28;20045;-87
2022/05/02 11:50:29;;;;;;;9.30;4.07;;;;;;;17.16;19.45;99567.59;5048633;28;20048;-89
2022/05/02 11:53:09;;;;;;;11.45;3.28;;;;;;;17.07;18.52;99554.72;5015444;28;20044;-88
2022/05/02 11:55:40;;;;;;;11.45;3.95;;;;;;;17.40;18.79;99553.66;5035810;28;20114;-87
2022/05/02 11:58:26;;;;;;;18.88;4.97;;;;;;;18.01;18.83;99552.50;5066418;28;20051;-87
2022/05/02 12:01:09;;;;;;;6.15;3.22;;;;;;;18.38;17.45;99549.47;5057788;28;20044;-87
2022/05/02 12:04:11;;;;;;;;;;;;;;;;;;;;;
2022/05/02 12:07:11;;;;;;;13.82;5.45;;;;;;;18.71;18.89;99535.19;5039882;28;20043;-86
2022/05/02 12:09:39;;;;;;;10.57;3.53;;;;;;;18.80;18.27;99533.03;5068707;28;20059;-84
2022/05/02 12:12:10;;;;;;;12.27;3.70;;;;;;;18.48;18.88;99533.09;5075022;28;20047;-89
2022/05/02 12:14:42;;;;;;;7.60;4.20;;;;;;;18.23;19.15;99535.28;5047505;28;20036;-86
2022/05/02 12:17:12;;;;;;;16.77;5.28;;;;;;;17.87;18.72;99549.38;5075613;28;20037;-88
2022/05/02 12:19:44;;;;;;;9.65;5.38;;;;;;;17.73;19.64;99528.47;5017847;28;20096;-86
2022/05/02 12:22:34;;;;;;;12.52;4.07;;;;;;;17.92;19.24;99516.75;5076388;28;20037;-86
2022/05/02 12:25:21;;;;;;;9.55;5.55;;;;;;;18.08;20.50;99480.78;5024469;28;20078;-88
2022/05/02 12:28:30;;;;;;;15.48;6.72;;;;;;;18.46;18.64;99521.56;5042996;28;20417;-86
2022/05/02 12:38:50;;;;;;;14.90;3.90;;;;;;;18.57;18.39;99505.19;4993634;28;20054;-88
2022/05/02 12:42:09;;;;;;;16.58;9.60;;;;;;;18.40;19.09;99494.53;4976444;28;20422;-87
2022/05/02 12:44:46;;;;;;;19.70;6.50;;;;;;;18.16;19.25;99503.88;4866484;29;20040;-87
2022/05/02 12:47:57;;;;;;;29.95;8.95;;;;;;;18.07;18.88;99502.06;4904741;29;20104;-85
2022/05/02 12:50:29;;;;;;;15.18;6.40;;;;;;;17.90;19.47;99502.47;4947996;28;20051;-84
2022/05/02 12:53:05;;;;;;;25.50;5.63;;;;;;;17.63;20.38;99479.25;4995665;28;20050;-88
2022/05/02 12:55:38;;;;;;;14.77;5.70;;;;;;;17.74;20.12;99498.84;4973194;28;20577;-86
2022/05/02 13:01:04;;;;;;;11.98;6.53;;;;;;;17.68;20.42;99490.03;4981749;28;20066;-88
2022/05/02 13:03:52;;;;;;;12.30;5.63;;;;;;;17.75;21.06;99484.69;4958909;28;20049;-87
2022/05/02 13:06:21;;;;;;;7.90;4.20;;;;;;;17.72;20.91;99479.06;4989794;28;20083;-85
2022/05/02 13:09:33;;;;;;;9.80;3.40;;;;;;;17.62;20.41;99441.69;5064945;28;20075;-85
2022/05/02 13:12:09;;;;;;;8.38;3.53;;;;;;;17.63;20.37;99457.13;5039488;28;20128;-87
2022/05/02 13:14:45;;;;;;;9.88;4.93;;;;;;;17.43;21.02;99458.19;5053877;28;20040;-88
2022/05/02 13:17:37;;;;;;;26.02;4.63;;;;;;;17.22;21.95;99466.69;5034567;28;20049;-87
2022/05/02 13:20:17;;;;;;;29.52;5.63;;;;;;;17.00;22.29;99451.53;5052141;28;20037;-87
2022/05/02 13:23:30;;;;;;;10.90;3.95;;;;;;;16.99;22.90;99445.19;5058078;28;20729;-89
2022/05/02 13:26:02;;;;;;;11.13;4.88;;;;;;;17.07;22.37;99469.09;4943084;28;20463;-88
2022/05/02 13:29:13;;;;;;;10.23;3.88;;;;;;;16.86;21.98;99461.00;4970530;28;20188;-81